createdAt,value
2022-08-19T00:00:28.477Z,60.99
2022-08-19T00:03:06.500Z,60.98
2022-08-19T00:05:35.892Z,60.89
2022-08-19T00:08:04.987Z,60.70
2022-08-19T00:10:35.166Z,60.77
2022-08-19T00:13:05.314Z,60.67
2022-08-19T00:15:34.444Z,60.82
2022-08-19T00:18:03.227Z,60.84
2022-08-19T00:20:32.633Z,60.83
2022-08-19T00:23:01.357Z,60.74
2022-08-19T00:25:30.847Z,60.63
2022-08-19T00:28:00.449Z,60.65
2022-08-19T00:30:29.919Z,60.74
2022-08-19T00:32:59.157Z,60.87
2022-08-19T00:35:28.405Z,61.02
2022-08-19T00:37:57.309Z,61.02
2022-08-19T00:40:26.667Z,60.96
2022-08-19T00:42:55.386Z,61.05
2022-08-19T00:45:29.016Z,61.13
2022-08-19T00:47:57.905Z,61.21
2022-08-19T00:50:26.682Z,61.22
2022-08-19T00:52:56.111Z,61.29
2022-08-19T00:55:29.937Z,61.36
2022-08-19T00:58:05.962Z,61.32
2022-08-19T01:00:38.952Z,61.09
2022-08-19T01:03:14.547Z,61.08
2022-08-19T01:05:46.195Z,61.23
2022-08-19T01:08:18.389Z,61.52
2022-08-19T01:10:55.771Z,61.50
2022-08-19T01:13:29.494Z,61.57
2022-08-19T01:16:21.682Z,61.83
2022-08-19T01:18:51.448Z,61.84
2022-08-19T01:21:35.547Z,62.13
2022-08-19T01:24:05.171Z,62.23
2022-08-19T01:26:42.801Z,61.99
2022-08-19T01:29:13.103Z,62.21
2022-08-19T01:31:41.961Z,62.32
2022-08-19T01:34:11.122Z,62.45
2022-08-19T01:36:46.668Z,62.45
2022-08-19T01:39:23.446Z,62.72
2022-08-19T01:41:56.265Z,62.64
2022-08-19T01:44:25.235Z,62.53
2022-08-19T01:46:54.349Z,62.69
2022-08-19T01:49:26.430Z,63.04
2022-08-19T01:51:55.835Z,63.16
2022-08-19T01:54:27.886Z,63.17
2022-08-19T01:57:09.827Z,63.40
2022-08-19T01:59:40.523Z,63.50
2022-08-19T02:02:09.524Z,63.42
2022-08-19T02:04:39.658Z,63.54
2022-08-19T02:07:09.607Z,63.51
2022-08-19T02:09:39.282Z,63.70
2022-08-19T02:12:09.880Z,63.80
2022-08-19T02:14:38.656Z,63.81
2022-08-19T02:17:07.483Z,63.67
2022-08-19T02:19:36.298Z,63.69
2022-08-19T02:22:08.771Z,64.00
2022-08-19T02:24:37.698Z,63.99
2022-08-19T02:27:06.952Z,64.04
2022-08-19T02:29:35.685Z,64.12
2022-08-19T02:32:05.441Z,64.27
2022-08-19T02:34:35.493Z,64.29
2022-08-19T02:37:04.349Z,64.40
2022-08-19T02:39:33.086Z,64.30
2022-08-19T02:42:03.304Z,64.50
2022-08-19T02:44:32.186Z,64.48
2022-08-19T02:47:01.004Z,64.64
2022-08-19T02:49:29.755Z,64.67
2022-08-19T02:52:04.515Z,64.69
2022-08-19T02:54:33.382Z,64.76
2022-08-19T02:57:02.177Z,64.71
2022-08-19T02:59:32.320Z,64.88
2022-08-19T03:02:01.208Z,65.01
2022-08-19T03:04:30.798Z,64.93
2022-08-19T03:07:07.216Z,65.08
2022-08-19T03:09:40.292Z,65.05
2022-08-19T03:12:11.288Z,65.06
2022-08-19T03:14:40.155Z,65.35
2022-08-19T03:17:09.047Z,65.29
2022-08-19T03:19:39.319Z,65.33
2022-08-19T03:22:09.036Z,65.49
2022-08-19T03:24:39.415Z,65.62
2022-08-19T03:27:08.196Z,65.84
2022-08-19T03:29:43.295Z,65.90
2022-08-19T03:32:24.434Z,65.80
2022-08-19T03:35:02.287Z,65.87
2022-08-19T03:37:31.087Z,66.03
2022-08-19T03:39:59.966Z,66.07
2022-08-19T03:42:38.310Z,66.22
2022-08-19T03:45:18.279Z,66.18
2022-08-19T03:47:46.994Z,66.19
2022-08-19T03:50:16.955Z,66.31
2022-08-19T03:52:51.827Z,66.36
2022-08-19T03:55:20.876Z,66.41
2022-08-19T03:57:50.436Z,66.50
2022-08-19T04:00:19.579Z,66.58
2022-08-19T04:02:58.506Z,66.69
2022-08-19T04:05:30.295Z,66.66
2022-08-19T04:08:00.048Z,66.71
2022-08-19T04:10:29.640Z,66.61
2022-08-19T04:12:58.453Z,66.72
2022-08-19T04:15:28.678Z,66.90
2022-08-19T04:17:57.415Z,67.09
2022-08-19T04:20:26.123Z,67.12
2022-08-19T04:22:55.108Z,66.99
2022-08-19T04:25:24.036Z,66.96
2022-08-19T04:27:52.820Z,67.12
2022-08-19T04:30:23.691Z,67.24
2022-08-19T04:32:52.564Z,67.34
2022-08-19T04:35:24.798Z,67.36
2022-08-19T04:37:53.946Z,67.56
2022-08-19T04:40:41.133Z,67.57
2022-08-19T04:43:16.649Z,67.78
2022-08-19T04:45:46.855Z,67.83
2022-08-19T04:48:26.660Z,67.78
2022-08-19T04:50:59.265Z,67.60
2022-08-19T04:53:37.876Z,67.37
2022-08-19T04:56:17.443Z,67.58
2022-08-19T04:58:46.929Z,67.54
2022-08-19T05:01:21.388Z,67.41
2022-08-19T05:03:51.060Z,67.37
2022-08-19T05:06:22.343Z,67.28
2022-08-19T05:08:51.232Z,67.35
2022-08-19T05:11:29.431Z,67.27
2022-08-19T05:13:58.952Z,67.09
2022-08-19T05:16:28.933Z,67.02
2022-08-19T05:19:16.119Z,66.98
2022-08-19T05:22:04.385Z,66.86
2022-08-19T05:24:35.272Z,66.76
2022-08-19T05:27:06.684Z,66.53
2022-08-19T05:29:36.365Z,66.22
2022-08-19T05:32:09.813Z,66.18
2022-08-19T05:34:39.291Z,66.02
2022-08-19T05:37:09.453Z,66.02
2022-08-19T05:39:39.397Z,65.80
2022-08-19T05:42:11.985Z,65.63
2022-08-19T05:44:48.209Z,65.15
2022-08-19T05:47:19.932Z,64.84
2022-08-19T05:49:51.447Z,64.31
2022-08-19T05:52:25.763Z,64.12
2022-08-19T05:55:05.193Z,63.74
2022-08-19T05:58:00.128Z,63.26
2022-08-19T06:00:53.973Z,62.30
2022-08-19T06:03:50.066Z,61.55
2022-08-19T06:06:45.671Z,61.20
2022-08-19T06:09:43.643Z,60.91
2022-08-19T06:13:01.789Z,60.31
2022-08-19T06:16:42.060Z,59.93
2022-08-19T06:19:31.104Z,59.68
2022-08-19T06:22:19.973Z,59.11
2022-08-19T06:25:30.053Z,58.39
2022-08-19T06:29:11.514Z,57.54
2022-08-19T06:32:30.931Z,56.93
2022-08-19T06:35:15.229Z,56.82
2022-08-19T06:38:03.562Z,56.76
2022-08-19T06:40:35.591Z,56.97
2022-08-19T06:43:10.605Z,56.84
2022-08-19T06:45:43.377Z,56.38
2022-08-19T06:48:31.417Z,55.52
2022-08-19T06:51:08.683Z,54.89
2022-08-19T06:53:40.777Z,54.64
2022-08-19T06:59:32.500Z,53.83
2022-08-19T07:02:14.504Z,53.39
2022-08-19T07:04:52.413Z,53.13
2022-08-19T07:07:34.686Z,52.78
2022-08-19T07:10:36.239Z,52.12
2022-08-19T07:13:14.833Z,51.62
2022-08-19T07:15:52.362Z,51.27
2022-08-19T07:18:41.054Z,51.07
2022-08-19T07:21:31.931Z,50.27
2022-08-19T07:24:10.569Z,49.29
2022-08-19T07:26:45.137Z,48.93
2022-08-19T07:29:28.720Z,49.10
2022-08-19T07:32:17.492Z,48.28
2022-08-19T07:34:57.047Z,47.07
2022-08-19T07:37:33.508Z,46.16
2022-08-19T07:40:12.128Z,46.30
2022-08-19T07:42:51.808Z,46.09
2022-08-19T07:45:39.800Z,45.34
2022-08-19T07:48:20.564Z,45.27
2022-08-19T07:51:36.995Z,44.55
2022-08-19T07:54:08.926Z,43.97
2022-08-19T07:56:43.258Z,43.88
2022-08-19T07:59:48.251Z,43.56
2022-08-19T08:02:26.888Z,44.06
2022-08-19T08:07:00.501Z,44.56
2022-08-19T08:12:32.816Z,43.52
2022-08-19T08:15:59.132Z,43.39
2022-08-19T08:19:20.581Z,43.02
2022-08-19T08:22:26.512Z,43.21
2022-08-19T08:25:27.454Z,43.09
2022-08-19T08:28:31.339Z,42.89
2022-08-19T08:31:20.323Z,41.31
2022-08-19T08:34:00.126Z,40.02
2022-08-19T08:36:40.216Z,39.73
2022-08-19T08:39:24.564Z,39.35
2022-08-19T08:42:17.814Z,37.79
2022-08-19T08:45:16.130Z,37.82
2022-08-19T08:48:01.114Z,37.41
2022-08-19T08:50:45.544Z,36.64
2022-08-19T08:53:47.224Z,36.78
2022-08-19T08:58:20.998Z,36.11
2022-08-19T09:00:51.521Z,36.39
2022-08-19T09:03:33.474Z,36.07
2022-08-19T09:07:01.932Z,35.33
2022-08-19T09:09:53.665Z,34.99
2022-08-19T09:12:59.790Z,34.66
2022-08-19T09:16:12.452Z,34.41
2022-08-19T09:19:09.971Z,34.18
2022-08-19T09:21:48.906Z,34.80
2022-08-19T09:24:48.805Z,34.09
2022-08-19T09:27:43.752Z,33.33
2022-08-19T09:30:49.003Z,33.53
2022-08-19T09:33:31.357Z,32.85
2022-08-19T09:36:42.281Z,32.48
2022-08-19T09:40:07.098Z,32.68
2022-08-19T09:43:10.034Z,31.59
2022-08-19T09:46:03.296Z,32.19
2022-08-19T09:48:38.115Z,31.98
2022-08-19T09:51:19.612Z,31.15
2022-08-19T09:54:11.231Z,30.88
2022-08-19T09:57:09.464Z,30.51
2022-08-19T09:59:44.685Z,30.81
2022-08-19T10:02:22.149Z,30.41
2022-08-19T10:05:14.256Z,30.23
2022-08-19T10:08:13.013Z,29.46
2022-08-19T10:10:48.521Z,29.33
2022-08-19T10:13:33.077Z,29.62
2022-08-19T10:16:33.869Z,30.01
2022-08-19T10:19:11.797Z,30.40
2022-08-19T10:21:46.555Z,30.57
2022-08-19T10:24:27.663Z,29.87
2022-08-19T10:30:13.455Z,29.72
2022-08-19T10:33:11.676Z,28.67
2022-08-19T10:38:52.295Z,28.87
2022-08-19T10:41:42.702Z,28.93
2022-08-19T10:44:16.940Z,28.86
2022-08-19T10:46:56.525Z,28.87
2022-08-19T10:49:33.328Z,28.20
2022-08-19T10:52:38.754Z,28.10
2022-08-19T10:55:34.712Z,28.68
2022-08-19T10:58:04.623Z,29.32
2022-08-19T11:00:39.310Z,29.95
2022-08-19T11:03:19.790Z,29.78
2022-08-19T11:06:06.476Z,30.08
2022-08-19T11:08:49.145Z,29.86
2022-08-19T11:11:22.612Z,30.70
2022-08-19T11:13:52.545Z,31.09
2022-08-19T11:16:27.930Z,31.00
2022-08-19T11:19:00.524Z,31.35
2022-08-19T11:21:36.693Z,31.35
2022-08-19T11:24:13.553Z,30.77
2022-08-19T11:27:10.426Z,30.58
2022-08-19T11:29:40.447Z,30.67
2022-08-19T11:32:14.300Z,31.00
2022-08-19T11:34:45.578Z,31.25
2022-08-19T11:37:17.061Z,31.39
2022-08-19T11:39:49.289Z,31.30
2022-08-19T11:42:44.755Z,31.40
2022-08-19T11:45:16.187Z,30.82
2022-08-19T11:47:48.858Z,30.93
2022-08-19T11:50:24.690Z,30.79
2022-08-19T11:52:58.649Z,30.47
2022-08-19T11:55:27.909Z,30.16
2022-08-19T11:57:58.344Z,30.39
2022-08-19T12:00:31.978Z,30.34
2022-08-19T12:03:02.578Z,30.49
2022-08-19T12:05:43.154Z,30.37
2022-08-19T12:08:26.294Z,30.64
2022-08-19T12:10:57.924Z,31.00
2022-08-19T12:13:43.020Z,30.19
2022-08-19T12:16:34.476Z,29.46
2022-08-19T12:19:08.786Z,29.37
2022-08-19T12:21:42.555Z,29.72
2022-08-19T12:24:24.399Z,29.64
2022-08-19T12:27:00.824Z,29.32
2022-08-19T12:29:33.720Z,29.72
2022-08-19T12:32:07.432Z,29.62
2022-08-19T12:34:40.754Z,29.60
2022-08-19T12:37:13.398Z,29.60
2022-08-19T12:39:44.651Z,29.66
2022-08-19T12:42:21.735Z,29.45
2022-08-19T12:44:55.222Z,29.17
2022-08-19T12:47:34.253Z,29.51
2022-08-19T12:50:09.925Z,29.81
2022-08-19T12:52:49.952Z,29.79
2022-08-19T12:55:28.493Z,30.05
2022-08-19T12:58:27.065Z,30.72
2022-08-19T13:01:29.990Z,30.46
2022-08-19T13:04:15.698Z,29.94
2022-08-19T13:07:04.844Z,30.06
2022-08-19T13:09:41.576Z,30.22
2022-08-19T13:12:14.474Z,29.88
2022-08-19T13:17:00.060Z,29.73
2022-08-19T13:18:33.659Z,30.02
2022-08-19T13:21:14.432Z,29.67
2022-08-19T13:23:45.235Z,29.43
2022-08-19T13:26:21.081Z,29.38
2022-08-19T13:29:08.933Z,29.19
2022-08-19T13:32:05.172Z,28.73
2022-08-19T13:34:39.696Z,28.45
2022-08-19T13:37:13.511Z,28.62
2022-08-19T13:39:48.655Z,28.77
2022-08-19T13:42:25.430Z,28.57
2022-08-19T13:45:02.707Z,28.60
2022-08-19T13:47:36.403Z,28.77
2022-08-19T13:50:07.745Z,28.88
2022-08-19T13:52:37.155Z,28.50
2022-08-19T13:55:12.724Z,28.37
2022-08-19T13:58:00.050Z,28.57
2022-08-19T14:00:41.248Z,28.98
2022-08-19T14:03:26.296Z,29.18
2022-08-19T14:06:01.401Z,29.43
2022-08-19T14:08:34.624Z,29.29
2022-08-19T14:11:25.849Z,29.14
2022-08-19T14:14:02.564Z,29.12
2022-08-19T14:16:36.977Z,29.16
2022-08-19T14:19:06.453Z,29.14
2022-08-19T14:21:41.528Z,29.10
2022-08-19T14:24:14.402Z,28.83
2022-08-19T14:26:43.468Z,29.16
2022-08-19T14:29:15.665Z,29.40
2022-08-19T14:31:54.207Z,29.49
2022-08-19T14:34:27.681Z,29.60
2022-08-19T14:37:02.207Z,29.28
2022-08-19T14:39:41.874Z,29.40
2022-08-19T14:42:15.754Z,29.65
2022-08-19T14:44:48.413Z,29.80
2022-08-19T14:47:25.423Z,29.86
2022-08-19T14:49:59.417Z,29.81
2022-08-19T14:52:34.536Z,29.96
2022-08-19T14:55:07.900Z,29.87
2022-08-19T14:57:40.769Z,30.01
2022-08-19T15:00:25.853Z,30.18
2022-08-19T15:02:55.838Z,30.20
2022-08-19T15:05:25.282Z,30.13
2022-08-19T15:07:56.876Z,30.13
2022-08-19T15:10:26.308Z,30.37
2022-08-19T15:13:05.408Z,30.69
2022-08-19T15:15:38.286Z,30.73
2022-08-19T15:18:31.415Z,31.14
2022-08-19T15:21:08.391Z,31.09
2022-08-19T15:23:43.732Z,31.07
2022-08-19T15:26:38.328Z,31.11
2022-08-19T15:29:21.771Z,31.28
2022-08-19T15:32:06.139Z,31.28
2022-08-19T15:34:45.647Z,31.59
2022-08-19T15:37:44.761Z,31.59
2022-08-19T15:40:14.326Z,31.43
2022-08-19T15:42:54.445Z,31.70
2022-08-19T15:45:32.285Z,31.87
2022-08-19T15:48:07.347Z,31.85
2022-08-19T15:50:45.261Z,31.83
2022-08-19T15:53:19.036Z,31.79
2022-08-19T15:55:51.405Z,31.96
2022-08-19T15:58:39.561Z,32.15
2022-08-19T16:01:29.129Z,32.38
2022-08-19T16:04:22.924Z,32.65
2022-08-19T16:06:59.626Z,33.01
2022-08-19T16:09:36.047Z,33.26
2022-08-19T16:12:08.958Z,33.49
2022-08-19T16:14:39.884Z,33.78
2022-08-19T16:17:12.928Z,34.21
2022-08-19T16:19:47.601Z,34.54
2022-08-19T16:22:33.327Z,34.69
2022-08-19T16:25:25.305Z,34.72
2022-08-19T16:28:33.821Z,35.01
2022-08-19T16:31:29.125Z,35.20
2022-08-19T16:34:12.958Z,35.63
2022-08-19T16:36:50.870Z,35.77
2022-08-19T16:39:25.237Z,35.79
2022-08-19T16:42:07.503Z,36.12
2022-08-19T16:44:41.795Z,36.24
2022-08-19T16:47:19.340Z,36.39
2022-08-19T16:49:55.496Z,36.52
2022-08-19T16:52:53.453Z,36.83
2022-08-19T16:55:25.678Z,37.03
2022-08-19T16:58:20.925Z,37.21
2022-08-19T17:01:25.199Z,37.40
2022-08-19T17:03:58.605Z,37.51
2022-08-19T17:06:59.408Z,37.50
2022-08-19T17:09:58.478Z,37.66
2022-08-19T17:12:44.876Z,37.85
2022-08-19T17:15:25.152Z,37.96
2022-08-19T17:18:24.227Z,38.11
2022-08-19T17:20:57.287Z,38.33
2022-08-19T17:23:43.772Z,38.32
2022-08-19T17:26:27.676Z,38.45
2022-08-19T17:29:14.271Z,38.55
2022-08-19T17:32:02.439Z,38.68
2022-08-19T17:34:36.427Z,38.94
2022-08-19T17:37:16.181Z,39.10
2022-08-19T17:39:49.646Z,39.33
2022-08-19T17:42:34.931Z,39.50
2022-08-19T17:45:08.259Z,39.63
2022-08-19T17:47:41.621Z,39.80
2022-08-19T17:50:14.913Z,40.09
2022-08-19T17:52:54.698Z,40.20
2022-08-19T17:55:32.152Z,40.49
2022-08-19T17:58:26.810Z,40.77
2022-08-19T18:01:10.006Z,41.84
2022-08-19T18:04:48.588Z,43.25
2022-08-19T18:08:01.783Z,45.37
2022-08-19T18:10:34.818Z,47.40
2022-08-19T18:13:17.882Z,49.16
2022-08-19T18:15:57.689Z,50.74
2022-08-19T18:18:42.089Z,52.03
2022-08-19T18:21:36.435Z,53.29
2022-08-19T18:24:53.198Z,54.24
2022-08-19T18:32:01.899Z,57.20
2022-08-19T18:34:42.511Z,58.01
2022-08-19T18:37:41.963Z,58.34
2022-08-19T18:41:00.123Z,58.96
2022-08-19T18:43:58.201Z,59.42
2022-08-19T18:46:56.236Z,59.59
2022-08-19T18:50:07.194Z,59.43
2022-08-19T18:53:03.400Z,60.18
2022-08-19T18:56:07.964Z,60.73
2022-08-19T18:59:10.072Z,61.35
2022-08-19T19:02:09.360Z,61.85
2022-08-19T19:05:06.869Z,62.11
2022-08-19T19:08:14.879Z,62.02
2022-08-19T19:11:28.609Z,62.24
2022-08-19T19:14:49.540Z,62.37
2022-08-19T19:17:26.227Z,62.50
2022-08-19T19:19:58.940Z,62.77
2022-08-19T19:22:31.326Z,62.96
2022-08-19T19:25:04.667Z,63.42
2022-08-19T19:27:36.914Z,63.81
2022-08-19T19:30:09.880Z,64.12
2022-08-19T19:32:40.821Z,64.36
2022-08-19T19:35:12.744Z,64.60
2022-08-19T19:37:52.680Z,64.50
2022-08-19T19:40:22.609Z,64.83
2022-08-19T19:42:52.212Z,65.19
2022-08-19T19:45:22.758Z,65.01
2022-08-19T19:47:52.134Z,65.20
2022-08-19T19:50:21.633Z,65.43
2022-08-19T19:52:50.804Z,65.51
2022-08-19T19:55:31.120Z,65.70
2022-08-19T19:58:09.436Z,65.91
2022-08-19T20:00:38.816Z,65.95
2022-08-19T20:03:10.706Z,66.28
2022-08-19T20:05:40.483Z,66.46
2022-08-19T20:08:29.362Z,66.74
2022-08-19T20:11:05.620Z,66.85
2022-08-19T20:13:40.925Z,67.03
2022-08-19T20:16:10.672Z,66.80
2022-08-19T20:18:40.384Z,66.79
2022-08-19T20:21:12.659Z,66.70
2022-08-19T20:23:41.770Z,66.83
2022-08-19T20:26:19.273Z,67.10
2022-08-19T20:29:13.431Z,66.91
2022-08-19T20:31:57.621Z,66.14
2022-08-19T20:34:29.081Z,65.13
2022-08-19T20:36:59.023Z,64.92
2022-08-19T20:39:28.296Z,64.39
2022-08-19T20:42:00.978Z,64.33
2022-08-19T20:44:30.063Z,64.06
2022-08-19T20:47:03.376Z,63.72
2022-08-19T20:49:33.214Z,63.66
2022-08-19T20:52:08.606Z,63.71
2022-08-19T20:54:37.774Z,63.88
2022-08-19T20:57:14.634Z,63.68
2022-08-19T20:59:43.756Z,63.87
2022-08-19T21:02:13.112Z,63.44
2022-08-19T21:04:43.364Z,63.59
2022-08-19T21:07:12.883Z,63.92
2022-08-19T21:09:42.264Z,64.13
2022-08-19T21:12:14.296Z,64.20
2022-08-19T21:14:47.284Z,64.15
2022-08-19T21:17:18.354Z,64.13
2022-08-19T21:19:50.385Z,64.29
2022-08-19T21:22:23.971Z,64.50
2022-08-19T21:24:53.480Z,64.45
2022-08-19T21:27:28.769Z,64.35
2022-08-19T21:29:57.914Z,64.43
2022-08-19T21:32:27.451Z,64.57
2022-08-19T21:34:57.165Z,64.82
2022-08-19T21:37:31.221Z,64.91
2022-08-19T21:40:02.360Z,65.33
2022-08-19T21:42:31.542Z,65.47
2022-08-19T21:45:04.788Z,65.78
2022-08-19T21:47:47.522Z,66.13
2022-08-19T21:50:34.785Z,65.94
2022-08-19T21:53:39.086Z,66.14
2022-08-19T21:56:08.695Z,66.33
2022-08-19T21:58:54.239Z,66.33
2022-08-19T22:01:42.778Z,66.21
2022-08-19T22:04:23.094Z,65.94
2022-08-19T22:07:19.924Z,65.94
2022-08-19T22:10:38.011Z,65.83
2022-08-19T22:13:49.456Z,66.31
2022-08-19T22:17:01.923Z,66.44
2022-08-19T22:20:22.151Z,66.29
2022-08-19T22:23:31.891Z,66.42
2022-08-19T22:31:04.591Z,66.60
2022-08-19T22:38:08.834Z,67.26
2022-08-19T22:43:48.738Z,67.16
2022-08-19T22:47:22.625Z,67.08
2022-08-19T22:54:35.782Z,66.80
2022-08-19T22:57:07.148Z,66.88
2022-08-19T22:59:41.720Z,66.89
2022-08-19T23:02:30.217Z,66.70
2022-08-19T23:05:03.966Z,66.84
2022-08-19T23:07:40.231Z,66.67
2022-08-19T23:10:15.121Z,66.94
2022-08-19T23:12:59.513Z,67.13
2022-08-19T23:15:33.535Z,67.16
2022-08-19T23:18:08.256Z,67.34
2022-08-19T23:20:47.954Z,67.29
2022-08-19T23:23:20.103Z,67.71
2022-08-19T23:25:49.420Z,68.10
2022-08-19T23:28:40.673Z,68.27
2022-08-19T23:31:12.653Z,68.38
2022-08-19T23:33:51.902Z,68.69
2022-08-19T23:36:24.491Z,69.08
2022-08-19T23:38:55.082Z,69.30
2022-08-19T23:41:30.025Z,69.67
2022-08-19T23:44:05.938Z,69.89
2022-08-19T23:46:54.892Z,70.24
2022-08-19T23:49:26.116Z,70.58
2022-08-19T23:51:55.941Z,70.98
2022-08-19T23:54:42.765Z,71.10
2022-08-19T23:57:14.453Z,71.19
2022-08-19T23:59:56.218Z,71.39
